KJDD

Wood County Airport

Mineola/Quitman, Texas, USA
METAR KJDD 161015Z AUTO 00000KT 10SM CLR M02/M04 A3019 RMK AO2
Observed Flight Rules
Dec-16 @ 10:15 UTC (39 minutes ago) Visual Flight Rules
Wind Visibility Clouds
Calm 10 miles
  • Clear skies
Temperatures Readings
Current -2°C / 28°F
Dewpoint -4°C / 25°F
Humidity 86%
Altimeter 30.19" Hg
Pressure 1022 hPa
Elevation 132
METAR KJDD 161015Z AUTO 00000KT 10SM CLR M02/M04 A3019 RMK AO2
Observed Flight Rules
Dec-16 @ 10:15 UTC
(39 minutes ago)
VFR
Wind Visibility
Calm 10 miles
Clouds
  • Clear skies
Temperature Dewpoint
-2°C / 28°F -4°C / 25°F
Humidity Altimeter Pressure
86% 30.19" Hg 1022 hPa